Latest Weather Observations for Charles Point

IDD60901

Issued at 2:55 pm CST Saturday 1 November 2014 (issued every 10 minutes, with the page automatically refreshed every 10 minutes)

About weather observations | Map of Darwin area stations | Latest observations for Darwin area | Other Formats
Station Details ID: 014031 Name: CHARLES POINT Lat: -12.39 Lon: 130.63 Height: 14.0 m
Data from the previous 72 hours. | See also: Recent months for locations in Northern Territory
Date/Time
CST
Tmp

°C
App
Tmp
°C
Dew
Point
°C
Rel
Hum
%
Delta-T

°C
Wind Press
QNH
hPa
Press
MSL
hPa
Rain
since
9 am
mm
Dir
 
Spd
km/h
Gust
km/h
Spd
kts
Gust
kts
01/02:30pm 30.8 32.9 20.1 53 7.1 N 9 11 5 6 1008.6 1008.4 0.0
01/02:00pm 30.3 33.0 21.4 59 6.0 N 9 11 5 6 1009.2 1009.0 0.0
01/01:30pm 30.1 32.9 21.5 60 5.8 N 9 15 5 8 1009.8 1009.6 0.0
01/01:00pm 30.1 33.1 22.0 62 5.5 N 9 13 5 7 1010.4 1010.2 0.0
01/12:30pm 29.8 33.0 23.0 67 4.7 N 11 15 6 8 1011.0 1010.8 0.0
01/12:00pm 29.8 32.6 23.0 67 4.7 N 13 17 7 9 1011.6 1011.5 0.0
01/11:30am 29.4 32.0 22.6 67 4.6 N 13 17 7 9 1012.0 1011.9 0.0
01/11:00am 29.4 32.4 23.4 70 4.1 N 13 19 7 10 1012.3 1012.2 0.0
01/10:30am 29.1 32.2 23.5 72 3.9 N 13 17 7 9 1012.7 1012.6 0.0
01/10:00am 29.9 33.8 23.6 69 4.3 ENE 9 15 5 8 1012.7 1012.6 0.0
01/09:30am 29.6 33.1 23.5 69 4.2 ENE 11 17 6 9 1012.7 1012.6 0.0
01/09:00am 29.4 33.5 24.0 72 3.7 ENE 9 15 5 8 1012.6 1012.5 0.0
01/08:30am 29.7 33.5 22.4 65 5.0 E 6 7 3 4 1012.3 1012.2 0.0
01/08:00am 29.2 33.0 21.7 64 5.0 E 4 7 2 4 1011.9 1011.8 0.0
01/07:30am 28.3 32.1 21.6 67 4.5 ESE 4 6 2 3 1011.3 1011.2 0.0
01/07:00am 25.9 29.9 22.0 79 2.6 SE 4 7 2 4 1010.7 1010.6 0.0
01/06:30am 24.0 27.3 21.5 86 1.7 SSE 6 6 3 3 1010.2 1010.1 0.0
01/06:00am 23.8 27.5 21.5 87 1.5 SSE 4 6 2 3 1009.8 1009.6 0.0
01/05:30am 23.9 27.3 21.6 87 1.5 SSE 6 6 3 3 1009.3 1009.1 0.0
01/05:00am 24.0 27.3 21.5 86 1.7 SSE 6 7 3 4 1009.0 1008.8 0.0
01/04:30am 23.9 27.3 21.6 87 1.5 S 6 6 3 3 1008.5 1008.3 0.0
01/04:00am 24.1 27.9 21.6 86 1.7 S 4 6 2 3 1008.3 1008.1 0.0
01/03:30am 24.6 28.4 21.7 84 1.9 SW 4 6 2 3 1008.0 1007.8 0.0
01/03:00am 25.6 29.4 21.7 79 2.6 WSW 4 4 2 2 1007.9 1007.7 0.0
01/02:30am 25.3 29.1 21.6 80 2.5 WSW 4 6 2 3 1008.0 1007.8 0.0
01/02:00am 25.8 29.6 21.7 78 2.7 SW 4 6 2 3 1008.4 1008.2 0.0
01/01:30am 26.7 30.5 21.7 74 3.3 WSW 4 7 2 4 1008.7 1008.5 0.0
01/01:00am 27.3 30.8 21.8 72 3.7 W 6 11 3 6 1008.9 1008.7 0.0
01/12:30am 27.8 30.6 22.3 72 3.7 WNW 11 19 6 10 1009.1 1008.9 0.0
01/12:00am 28.0 31.0 22.0 70 4.0 W 9 17 5 9 1009.5 1009.3 0.0
 
Date/Time
CST
Tmp

°C
App
Tmp
°C
Dew
Point
°C
Rel
Hum
%
Delta-T

°C
Wind Press
QNH
hPa
Press
MSL
hPa
Rain
since
9 am
mm
Dir
 
Spd
km/h
Gust
km/h
Spd
kts
Gust
kts
31/11:30pm 28.2 30.7 22.4 71 3.9 WNW 13 17 7 9 1009.7 1009.5 0.0
31/11:00pm 28.3 30.2 22.1 69 4.2 WNW 15 19 8 10 1009.9 1009.7 0.0
31/10:30pm 28.4 30.4 22.2 69 4.2 WNW 15 19 8 10 1009.9 1009.7 0.0
31/10:00pm 28.0 30.5 21.8 69 4.2 WNW 11 17 6 9 1009.7 1009.5 0.0
31/09:30pm 28.3 30.8 22.5 71 3.9 WNW 13 19 7 10 1009.6 1009.4 0.0
31/09:00pm 28.4 30.5 22.4 70 4.1 WNW 15 20 8 11 1009.5 1009.3 0.0
31/08:30pm 28.4 30.8 22.9 72 3.8 WNW 15 20 8 11 1009.3 1009.1 0.0
31/08:00pm 28.4 30.1 22.4 70 4.1 WNW 17 20 9 11 1009.1 1008.9 0.0
31/07:30pm 28.6 30.4 22.6 70 4.1 WNW 17 22 9 12 1009.1 1008.9 0.0
31/07:00pm 28.6 30.8 22.6 70 4.1 WNW 15 20 8 11 1008.5 1008.3 0.0
31/06:30pm 28.9 30.5 22.2 67 4.5 NW 17 24 9 13 1008.4 1008.2 0.0
31/06:00pm 29.3 30.4 21.3 62 5.4 NW 17 22 9 12 1008.1 1007.9 0.0
31/05:30pm 30.0 30.9 20.8 57 6.1 NW 17 20 9 11 1007.8 1007.6 0.0
31/05:00pm 30.5 31.9 21.0 57 6.3 WNW 15 19 8 10 1007.7 1007.5 0.0
31/04:30pm 30.8 31.6 20.7 55 6.7 WNW 17 22 9 12 1007.8 1007.6 0.0
31/04:00pm 30.9 31.8 20.8 55 6.7 WNW 17 22 9 12 1007.9 1007.7 0.0
31/03:30pm 31.2 31.5 19.5 49 7.7 WNW 17 22 9 12 1008.2 1008.0 0.0
31/03:00pm 31.8 31.1 16.5 39 9.6 WNW 15 19 8 10 1008.6 1008.4 0.0
31/02:30pm 31.4 31.4 17.3 43 9.0 WNW 13 17 7 9 1008.8 1008.6 0.0
31/02:00pm 31.3 30.6 14.4 35 10.3 NW 11 17 6 9 1009.1 1008.9 0.0
31/01:30pm 30.9 32.2 19.3 50 7.6 NW 11 17 6 9 1009.6 1009.4 0.0
31/01:00pm 29.9 31.9 20.7 57 6.1 NNW 11 17 6 9 1010.1 1010.0 0.0
31/12:30pm 29.8 30.8 18.6 51 7.2 N 11 13 6 7 1010.8 1010.7 0.0
31/12:00pm 29.5 31.3 19.5 55 6.5 N 9 13 5 7 1011.2 1011.1 0.0
31/11:30am 29.2 30.9 20.1 58 6.0 N 11 15 6 8 1011.5 1011.4 0.0
31/11:00am 28.8 30.7 20.5 61 5.5 N 11 13 6 7 1011.6 1011.5 0.0
31/10:30am 29.0 31.3 20.7 61 5.5 N 9 13 5 7 1011.6 1011.5 0.0
31/10:00am 28.7 31.1 21.5 65 4.8 N 11 15 6 8 1011.8 1011.7 0.0
31/09:30am 28.5 30.6 21.0 64 5.0 N 11 15 6 8 1011.8 1011.7 0.0
31/09:00am 28.8 31.2 20.0 59 5.8 NNE 7 11 4 6 1011.7 1011.6 0.0
31/08:30am 28.8 31.2 19.7 58 5.9 NNE 6 13 3 7 1011.6 1011.5 0.0
31/08:00am 28.4 30.9 20.2 61 5.4 NNE 7 11 4 6 1011.3 1011.2 0.0
31/07:30am 28.1 30.7 20.4 63 5.1 NNE 7 9 4 5 1010.8 1010.7 0.0
31/07:00am 25.0 29.0 21.3 80 2.4 NNW 2 6 1 3 1010.4 1010.3 0.0
31/06:30am 23.1 27.2 20.8 87 1.5 CALM 0 0 0 0 1010.0 1009.9 0.0
31/06:00am 23.2 27.4 20.9 87 1.5 CALM 0 0 0 0 1009.8 1009.6 0.0
31/05:30am 23.4 27.7 21.1 87 1.5 CALM 0 0 0 0 1009.5 1009.3 0.0
31/05:00am 23.6 27.9 21.1 86 1.6 CALM 0 2 0 1 1009.1 1008.9 0.0
31/04:30am 23.8 28.2 21.3 86 1.6 CALM 0 0 0 0 1009.0 1008.8 0.0
31/04:00am 24.1 28.5 21.4 85 1.8 CALM 0 0 0 0 1008.7 1008.5 0.0
31/03:30am 24.7 29.1 21.4 82 2.2 CALM 0 2 0 1 1008.4 1008.2 0.0
31/03:00am 25.3 29.8 21.6 80 2.5 CALM 0 4 0 2 1008.6 1008.4 0.0
31/02:30am 26.8 30.1 21.8 74 3.3 NW 7 11 4 6 1008.7 1008.5 0.0
31/02:00am 27.4 30.3 21.7 71 3.8 NW 9 15 5 8 1009.0 1008.8 0.0
31/01:30am 27.4 30.4 22.6 75 3.3 NW 11 15 6 8 1009.2 1009.0 0.0
31/01:00am 27.5 30.9 22.7 75 3.3 WNW 9 15 5 8 1009.3 1009.1 0.0
31/12:30am 27.7 30.7 22.6 74 3.5 NW 11 17 6 9 1009.4 1009.2 0.0
31/12:00am 27.7 30.7 22.6 74 3.5 WNW 11 17 6 9 1009.6 1009.4 0.0
 
Date/Time
CST
Tmp

°C
App
Tmp
°C
Dew
Point
°C
Rel
Hum
%
Delta-T

°C
Wind Press
QNH
hPa
Press
MSL
hPa
Rain
since
9 am
mm
Dir
 
Spd
km/h
Gust
km/h
Spd
kts
Gust
kts
30/11:30pm 27.8 30.6 23.0 75 3.3 NW 13 19 7 10 1009.8 1009.6 0.0
30/11:00pm 28.0 30.4 22.9 74 3.5 WNW 15 20 8 11 1009.9 1009.7 0.0
30/10:30pm 28.1 29.5 22.6 72 3.7 NW 19 24 10 13 1009.8 1009.6 0.0
30/10:00pm 28.3 30.2 23.4 75 3.4 WNW 19 24 10 13 1009.8 1009.6 0.0
30/09:30pm 28.4 30.3 23.5 75 3.4 WNW 19 24 10 13 1009.4 1009.2 0.0
30/09:00pm 28.4 30.3 23.5 75 3.4 NW 19 24 10 13 1009.1 1008.9 0.0
30/08:30pm 28.5 31.3 23.6 75 3.4 NW 15 22 8 12 1008.7 1008.5 0.0
30/08:00pm 28.5 31.2 23.4 74 3.5 NW 15 24 8 13 1008.6 1008.4 0.0
30/07:30pm 28.8 31.3 23.2 71 3.8 NW 15 20 8 11 1008.5 1008.3 0.0
30/07:00pm 28.8 31.5 22.8 70 4.1 NW 13 20 7 11 1008.4 1008.2 0.0
30/06:30pm 29.1 30.5 21.1 62 5.3 NNW 15 22 8 12 1008.1 1007.9 0.0
30/06:00pm 29.4 30.5 21.9 64 5.1 NNW 19 26 10 14 1007.9 1007.7 0.0
30/05:30pm 30.1 30.8 20.4 56 6.4 NNW 17 22 9 12 1007.9 1007.7 0.0
30/05:00pm 30.2 31.6 21.8 60 5.7 NNW 17 24 9 13 1007.9 1007.7 0.0
30/04:30pm 30.9 31.9 20.2 53 7.1 N 15 19 8 10 1007.9 1007.7 0.0
30/04:00pm 31.1 33.5 20.1 52 7.3 N 7 11 4 6 1008.0 1007.8 0.0
30/03:30pm 31.5 33.8 19.8 49 7.7 NNW 7 9 4 5 1008.2 1008.0 0.0
30/03:00pm 31.0 33.8 20.9 55 6.8 NNW 7 11 4 6 1008.5 1008.3 0.0
30/02:30pm 30.5 33.5 21.3 58 6.2 NNW 7 11 4 6 1008.9 1008.7 0.0
30/02:00pm 30.1 33.3 22.3 63 5.3 N 9 11 5 6 1009.2 1009.0 0.0
30/01:30pm 29.1 31.5 22.3 66 4.6 N 13 15 7 8 1009.7 1009.5 0.0
30/01:00pm 29.0 30.5 22.7 69 4.3 N 19 20 10 11 1010.1 1010.0 0.0
30/12:30pm 29.0 31.4 23.0 70 4.1 N 15 19 8 10 1010.6 1010.5 0.0
30/12:00pm 28.6 30.5 22.8 71 4.0 N 17 20 9 11 1011.0 1010.9 0.0
30/11:30am 28.7 31.4 23.4 73 3.6 N 15 20 8 11 1011.3 1011.2 0.0
30/11:00am 28.8 31.6 23.0 71 4.0 N 13 17 7 9 1011.6 1011.5 0.0
30/10:30am 28.8 32.5 23.2 71 3.8 N 9 13 5 7 1011.6 1011.5 0.0
30/10:00am 28.5 31.8 23.2 73 3.6 N 11 13 6 7 1011.9 1011.8 0.0
30/09:30am 28.4 32.1 23.3 74 3.5 N 9 13 5 7 1012.0 1011.9 0.0
30/09:00am 28.3 32.0 23.2 74 3.5 N 9 13 5 7 1012.0 1011.9 0.0
30/08:30am 28.1 32.0 23.0 74 3.5 N 7 11 4 6 1011.8 1011.7 0.0
30/08:00am 28.0 31.9 22.9 74 3.5 N 7 11 4 6 1011.6 1011.5 0.0
30/07:30am 27.8 31.9 23.2 76 3.1 N 7 9 4 5 1011.3 1011.2 0.0
30/07:00am 25.2 30.6 23.3 89 1.3 CALM 0 0 0 0 1011.0 1010.9 0.0
30/06:30am 24.4 29.6 22.8 91 1.1 CALM 0 4 0 2 1010.5 1010.4 0.0
30/06:00am 24.0 28.9 22.4 91 1.1 CALM 0 0 0 0 1010.1 1010.0 0.0
30/05:30am 24.1 29.1 22.5 91 1.1 CALM 0 2 0 1 1009.9 1009.7 0.0
30/05:00am 24.1 29.0 22.4 90 1.1 CALM 0 0 0 0 1009.6 1009.4 0.0
30/04:30am 24.3 28.9 22.4 89 1.3 W 2 4 1 2 1009.4 1009.2 0.0
30/04:00am 24.4 29.3 22.3 88 1.4 CALM 0 0 0 0 1009.4 1009.2 0.0
30/03:30am 24.6 29.6 22.5 88 1.4 CALM 0 0 0 0 1009.7 1009.5 0.0
30/03:00am 24.9 29.8 22.4 86 1.7 CALM 0 0 0 0 1009.9 1009.7 0.0
30/02:30am 25.2 30.2 22.5 85 1.8 CALM 0 0 0 0 1010.2 1010.1 0.0
30/02:00am 25.6 30.7 22.7 84 2.0 CALM 0 0 0 0 1010.5 1010.4 0.0
30/01:30am 25.8 29.9 22.3 81 2.4 WSW 4 6 2 3 1010.6 1010.5 0.0
30/01:00am 26.2 30.8 22.5 80 2.5 W 2 4 1 2 1010.8 1010.7 0.0
30/12:30am 27.4 31.7 22.6 75 3.3 NW 4 7 2 4 1011.1 1011.0 0.0
30/12:00am 27.9 31.5 22.4 72 3.7 NW 7 13 4 7 1011.2 1011.1 0.0
 
Date/Time
CST
Tmp

°C
App
Tmp
°C
Dew
Point
°C
Rel
Hum
%
Delta-T

°C
Wind Press
QNH
hPa
Press
MSL
hPa
Rain
since
9 am
mm
Dir
 
Spd
km/h
Gust
km/h
Spd
kts
Gust
kts
29/11:30pm 28.1 30.9 22.3 70 3.9 NW 11 17 6 9 1011.4 1011.3 0.0
29/11:00pm 28.3 30.7 22.3 70 4.1 NW 13 19 7 10 1011.5 1011.4 0.0
29/10:30pm 28.4 30.4 22.9 72 3.8 NW 17 22 9 12 1011.5 1011.4 0.0
29/10:00pm 28.5 29.9 22.5 70 4.1 WNW 19 22 10 12 1011.1 1011.0 0.0
29/09:30pm 28.6 30.6 22.3 68 4.3 WNW 15 19 8 10 1010.8 1010.7 0.0
29/09:00pm 28.7 31.1 22.9 71 4.0 WNW 15 20 8 11 1010.7 1010.6 0.0
29/08:30pm 28.4 31.5 22.2 69 4.2 W 9 15 5 8 1010.5 1010.4 0.0
29/08:00pm 27.8 31.4 22.1 71 3.8 WSW 6 9 3 5 1010.2 1010.1 0.0
29/07:30pm 27.9 31.2 21.4 67 4.3 SW 6 11 3 6 1009.5 1009.3 0.0
29/07:00pm 28.3 31.4 21.1 65 4.8 SSW 6 7 3 4 1009.5 1009.3 0.0
29/06:30pm 28.9 32.4 21.1 62 5.2 SW 4 7 2 4 1009.5 1009.3 0.0
29/06:00pm 29.8 33.1 21.5 61 5.6 W 6 11 3 6 1009.4 1009.2 0.0
29/05:30pm 29.9 32.8 21.8 62 5.5 WNW 9 13 5 7 1009.1 1008.9 0.0
29/05:00pm 29.9 33.0 22.1 63 5.3 NW 9 13 5 7 1009.0 1008.8 0.0
29/04:30pm 30.0 33.0 22.7 65 5.0 NNW 11 17 6 9 1009.0 1008.8 0.0
29/04:00pm 29.9 33.1 22.3 63 5.2 NNW 9 15 5 8 1009.2 1009.0 0.0
29/03:30pm 29.3 31.7 22.3 66 4.7 N 13 20 7 11 1009.4 1009.2 0.0
29/03:00pm 29.4 31.5 22.4 66 4.8 N 15 19 8 10 1009.6 1009.4 0.0

Latest Capital City Observations: Canberra | Sydney | Melbourne | Brisbane | Adelaide | Perth | Hobart | Darwin

Other Formats:

Comma delimited format used in spreadsheet applications
http://www.bom.gov.au/fwo/IDD60901/IDD60901.99510.axf

JavaScript Object Notation format (JSON) in row-major order
http://www.bom.gov.au/fwo/IDD60901/IDD60901.99510.json